Time;durP1;ratioP1;P1;durP2;ratioP2;P2;SDS_P1;SDS_P2;PMS_P1;PMS_P2;Temp;Humidity;BMP_temperature;BMP_pressure;BME280_temperature;BME280_humidity;BME280_pressure;Samples;Min_cycle;Max_cycle;Signal;HPM_P1;HPM_P2
2021/09/25 00:01:58;;;;;;;6.80;2.50;;;;;;;12.78;77.92;96698.59;115605;1190;28042;-86
2021/09/25 00:04:28;;;;;;;5.30;2.50;;;;;;;12.79;77.89;96696.98;115525;1197;26459;-87
2021/09/25 00:06:59;;;;;;;3.50;2.00;;;;;;;12.79;77.94;96696.45;115611;1196;24944;-87
2021/09/25 00:09:28;;;;;;;;;;;;;;;12.80;77.78;96696.45;115628;1197;26087;-86
2021/09/25 00:11:59;;;;;;;6.40;2.60;;;;;;;12.79;77.71;96700.17;115600;1196;27192;-86
2021/09/25 00:14:28;;;;;;;;;;;;;;;12.80;77.67;96698.89;115622;1198;25117;-86
2021/09/25 00:16:59;;;;;;;4.30;2.60;;;;;;;12.81;77.76;96700.80;115570;1197;29076;-87
2021/09/25 00:19:29;;;;;;;4.80;2.30;;;;;;;12.80;77.69;96702.03;115610;1198;25927;-87
2021/09/25 00:21:58;;;;;;;;;;;;;;;12.78;77.69;96703.59;115556;1196;25742;-87
2021/09/25 00:24:29;;;;;;;3.10;2.10;;;;;;;12.77;77.66;96702.70;115604;1196;24571;-86
2021/09/25 00:27:00;;;;;;;4.80;2.30;;;;;;;12.78;77.56;96697.74;115547;1196;26177;-87
2021/09/25 00:29:31;;;;;;;6.40;2.60;;;;;;;12.79;77.65;96697.41;115643;1196;25262;-86
2021/09/25 00:32:02;;;;;;;7.20;2.60;;;;;;;12.81;77.59;96699.25;115573;1198;27662;-86
2021/09/25 00:34:33;;;;;;;4.30;2.40;;;;;;;12.82;77.53;96695.60;115553;1198;29536;-87
2021/09/25 00:37:02;;;;;;;;;;;;;;;12.82;77.50;96697.88;115602;1198;25490;-87
2021/09/25 00:39:33;;;;;;;3.30;2.10;;;;;;;12.81;77.46;96699.16;115612;1198;26411;-87
2021/09/25 00:42:02;;;;;;;;;;;;;;;12.82;77.46;96696.81;115622;1190;25405;-87
2021/09/25 00:44:33;;;;;;;6.00;2.50;;;;;;;12.81;77.44;96698.15;115473;1198;25783;-87
2021/09/25 00:47:04;;;;;;;5.70;2.10;;;;;;;12.80;77.40;96695.34;115614;1196;25430;-87
2021/09/25 00:49:34;;;;;;;3.90;2.20;;;;;;;12.80;77.45;96693.52;115604;1198;25972;-86
2021/09/25 00:52:06;;;;;;;3.60;2.20;;;;;;;12.79;77.51;96695.23;115636;1196;26799;-86
2021/09/25 00:54:37;;;;;;;3.90;1.90;;;;;;;12.80;77.42;96694.42;115610;1196;24496;-87
2021/09/25 00:57:09;;;;;;;3.90;2.60;;;;;;;12.80;77.52;96691.07;115684;1196;26522;-86
2021/09/25 00:59:41;;;;;;;3.90;2.50;;;;;;;12.81;77.42;96691.33;115703;1196;25765;-85
2021/09/25 01:02:17;;;;;;;5.90;2.10;;;;;;;12.82;77.35;96688.98;115651;1198;23712;-86
2021/09/25 01:04:49;;;;;;;3.90;2.40;;;;;;;12.84;77.30;96685.45;115547;1198;25021;-86
2021/09/25 01:07:20;;;;;;;3.00;2.30;;;;;;;12.84;77.30;96682.20;115494;1198;35457;-86
2021/09/25 01:09:49;;;;;;;;;;;;;;;12.84;77.28;96681.29;115499;1198;28160;-86
2021/09/25 01:12:20;;;;;;;3.90;2.50;;;;;;;12.84;77.28;96681.23;115457;1198;23984;-85
2021/09/25 01:14:49;;;;;;;;;;;;;;;12.84;77.26;96677.35;115496;1197;30164;-85
2021/09/25 01:17:20;;;;;;;6.50;2.80;;;;;;;12.84;77.28;96676.50;115470;1198;34844;-87
2021/09/25 01:19:51;;;;;;;3.10;2.30;;;;;;;12.84;77.21;96675.44;115461;1198;26990;-86
2021/09/25 01:22:23;;;;;;;4.20;2.50;;;;;;;12.85;77.09;96672.92;115499;1191;25743;-86
2021/09/25 01:24:54;;;;;;;4.10;2.10;;;;;;;12.87;77.08;96677.08;115500;1197;24550;-86
2021/09/25 01:27:25;;;;;;;4.40;1.90;;;;;;;12.88;76.97;96675.52;115408;1198;63393;-87
2021/09/25 01:29:56;;;;;;;3.90;2.20;;;;;;;12.90;76.86;96676.52;115395;1199;28721;-86
2021/09/25 01:32:26;;;;;;;4.20;2.40;;;;;;;12.90;76.92;96676.23;115459;1198;34643;-87
2021/09/25 01:34:57;;;;;;;3.60;2.50;;;;;;;12.89;76.95;96683.05;115516;1198;25381;-87
2021/09/25 01:37:28;;;;;;;4.20;2.50;;;;;;;12.89;76.87;96681.20;115479;1198;37143;-87
2021/09/25 01:39:59;;;;;;;3.90;2.50;;;;;;;12.89;76.83;96680.67;115499;1198;31505;-87
2021/09/25 01:42:29;;;;;;;5.70;2.50;;;;;;;12.88;76.93;96678.92;115472;1184;52165;-86
2021/09/25 01:44:59;;;;;;;;;;;;;;;12.86;76.92;96673.70;115502;1198;29252;-87
2021/09/25 01:47:30;;;;;;;5.30;2.30;;;;;;;12.84;76.92;96673.95;115497;1192;27128;-87
2021/09/25 01:50:05;;;;;;;4.30;2.30;;;;;;;12.83;76.91;96671.58;115401;1198;26274;-86
2021/09/25 01:52:36;;;;;;;5.20;2.40;;;;;;;12.82;76.93;96669.72;115492;1197;25704;-86
2021/09/25 01:55:09;;;;;;;4.90;2.80;;;;;;;12.83;76.78;96668.80;115522;1192;40154;-86
2021/09/25 01:57:40;;;;;;;4.60;2.40;;;;;;;12.85;76.75;96669.56;115500;1198;28316;-86
2021/09/25 02:00:13;;;;;;;6.50;2.20;;;;;;;12.84;76.78;96669.06;115523;1191;26184;-86
2021/09/25 02:02:43;;;;;;;5.20;2.50;;;;;;;12.83;76.74;96669.82;115527;1192;31109;-86
2021/09/25 02:05:15;;;;;;;;;;;;;;;12.84;76.73;96668.90;115477;1198;31838;-86
2021/09/25 02:07:46;;;;;;;3.20;2.20;;;;;;;12.85;76.66;96669.25;115366;1199;33573;-86
2021/09/25 02:10:17;;;;;;;3.20;2.30;;;;;;;12.86;76.58;96669.45;115519;1198;29754;-87
2021/09/25 02:12:48;;;;;;;5.00;2.90;;;;;;;12.87;76.60;96668.63;115467;1198;26735;-86
2021/09/25 02:15:19;;;;;;;2.80;2.30;;;;;;;12.86;76.60;96670.77;115486;1198;25735;-87
2021/09/25 02:17:48;;;;;;;;;;;;;;;12.86;76.57;96671.36;115478;1198;25748;-87
2021/09/25 02:20:18;;;;;;;3.50;2.40;;;;;;;12.88;76.46;96668.83;115435;1191;51104;-86
2021/09/25 02:22:48;;;;;;;;;;;;;;;12.89;76.43;96669.64;115504;1198;38436;-86
2021/09/25 02:25:18;;;;;;;3.10;2.10;;;;;;;12.91;76.47;96667.64;115425;1198;39253;-85
2021/09/25 02:27:51;;;;;;;3.90;2.30;;;;;;;12.93;76.30;96664.15;115477;1198;28774;-85
2021/09/25 02:30:22;;;;;;;3.40;2.70;;;;;;;12.97;76.14;96662.50;115575;1198;24217;-86
2021/09/25 02:32:53;;;;;;;4.70;2.90;;;;;;;12.99;76.15;96660.66;115628;1198;25174;-86
2021/09/25 02:35:22;;;;;;;;;;;;;;;12.99;76.07;96659.64;115551;1196;53260;-86
2021/09/25 02:37:53;;;;;;;4.70;2.40;;;;;;;13.03;75.86;96663.25;115471;1198;29573;-87
2021/09/25 02:40:25;;;;;;;3.70;2.50;;;;;;;13.06;75.81;96667.66;115418;1198;25210;-86
2021/09/25 02:42:55;;;;;;;5.40;2.80;;;;;;;13.07;75.76;96673.00;115477;1198;25239;-87
2021/09/25 02:45:24;;;;;;;;;;;;;;;13.08;75.78;96673.22;115530;1192;24827;-87
2021/09/25 02:47:55;;;;;;;3.40;2.40;;;;;;;13.07;75.83;96673.75;115463;1198;25193;-87
2021/09/25 02:50:26;;;;;;;4.10;2.30;;;;;;;13.07;75.82;96667.48;115502;1192;41798;-86
2021/09/25 02:52:55;;;;;;;;;;;;;;;13.07;75.81;96671.69;115432;1198;67865;-86
2021/09/25 02:55:26;;;;;;;5.50;2.90;;;;;;;13.07;75.72;96672.31;115434;1198;24638;-86
2021/09/25 02:57:56;;;;;;;3.70;2.30;;;;;;;13.11;75.77;96675.05;115431;1198;25328;-87
2021/09/25 03:00:27;;;;;;;3.80;2.90;;;;;;;13.12;75.67;96678.81;115478;1198;24689;-87
2021/09/25 03:02:56;;;;;;;;;;;;;;;13.14;75.66;96677.77;115527;1198;24137;-86
2021/09/25 03:05:27;;;;;;;4.20;2.30;;;;;;;13.18;75.53;96685.79;115488;1198;26397;-86
2021/09/25 03:07:58;;;;;;;4.00;2.50;;;;;;;13.16;75.75;96683.73;115554;1197;27257;-87
2021/09/25 03:10:29;;;;;;;3.90;2.40;;;;;;;13.13;75.67;96684.44;115416;1199;23876;-87
2021/09/25 03:13:00;;;;;;;3.20;2.70;;;;;;;13.12;75.76;96684.03;115464;1198;26133;-87
2021/09/25 03:15:30;;;;;;;4.80;2.40;;;;;;;13.10;75.81;96683.11;115410;1198;25326;-86
2021/09/25 03:17:59;;;;;;;;;;;;;;;13.06;76.05;96684.10;115455;1198;27403;-86
2021/09/25 03:20:30;;;;;;;3.90;2.60;;;;;;;12.97;76.39;96686.83;115570;1198;25774;-87
2021/09/25 03:23:01;;;;;;;4.90;2.80;;;;;;;12.82;76.71;96694.52;115442;1198;23961;-88
2021/09/25 03:25:30;;;;;;;;;;;;;;;12.70;76.98;96696.03;115568;1198;25006;-86
2021/09/25 03:28:00;;;;;;;6.60;3.00;;;;;;;12.66;77.25;96694.75;115476;1198;26236;-86
2021/09/25 03:30:31;;;;;;;4.50;2.80;;;;;;;12.67;77.46;96698.31;115464;1197;25216;-86
2021/09/25 03:33:02;;;;;;;7.70;3.10;;;;;;;12.69;77.57;96703.34;115487;1192;25628;-87
2021/09/25 03:35:33;;;;;;;5.50;3.00;;;;;;;12.69;77.67;96697.21;115481;1198;25989;-87
2021/09/25 03:38:04;;;;;;;6.10;3.40;;;;;;;12.70;77.67;96700.13;115423;1198;24414;-86
2021/09/25 03:40:35;;;;;;;6.00;3.40;;;;;;;12.70;77.68;96706.72;115448;1197;25918;-86
2021/09/25 03:43:04;;;;;;;;;;;;;;;12.70;77.72;96705.39;115516;1198;26153;-86
2021/09/25 03:45:35;;;;;;;3.80;2.90;;;;;;;12.68;77.77;96703.67;115450;1198;26041;-87
2021/09/25 03:48:07;;;;;;;5.00;3.30;;;;;;;12.66;77.96;96705.87;115481;1198;27185;-86
2021/09/25 03:50:38;;;;;;;7.10;3.20;;;;;;;12.64;77.97;96705.68;115539;1198;25948;-87
2021/09/25 03:53:09;;;;;;;5.50;3.20;;;;;;;12.63;77.98;96706.08;115541;1198;34366;-87
2021/09/25 03:55:38;;;;;;;;;;;;;;;12.61;77.98;96706.67;115524;1198;25528;-87
2021/09/25 03:58:08;;;;;;;4.50;3.00;;;;;;;12.60;77.97;96706.65;115503;1198;27349;-86
2021/09/25 04:00:43;;;;;;;5.10;3.20;;;;;;;12.57;77.93;96701.06;115613;1198;30290;-86
2021/09/25 04:03:15;;;;;;;5.80;2.80;;;;;;;12.55;77.87;96700.46;115607;1198;35565;-86
2021/09/25 04:05:45;;;;;;;3.90;2.50;;;;;;;12.53;77.88;96709.84;115625;1193;25174;-87
2021/09/25 04:08:14;;;;;;;;;;;;;;;12.51;77.89;96708.47;115626;1198;24287;-86
2021/09/25 04:10:45;;;;;;;4.70;2.80;;;;;;;12.51;78.01;96714.79;115396;1198;26455;-86
2021/09/25 04:13:14;;;;;;;;;;;;;;;12.51;78.06;96715.44;115485;1198;26167;-86
2021/09/25 04:15:44;;;;;;;4.90;3.10;;;;;;;12.50;78.08;96719.44;115434;1198;24754;-86
2021/09/25 04:18:16;;;;;;;4.10;2.80;;;;;;;12.51;77.97;96717.67;115412;1198;25590;-86
2021/09/25 04:20:47;;;;;;;4.80;2.80;;;;;;;12.52;78.16;96719.36;115429;1198;35728;-86
2021/09/25 04:23:17;;;;;;;5.00;3.20;;;;;;;12.53;78.16;96721.85;115484;1198;26723;-87
2021/09/25 04:25:46;;;;;;;;;;;;;;;12.53;78.24;96722.97;115628;1198;23729;-85
2021/09/25 04:28:17;;;;;;;5.20;2.90;;;;;;;12.54;78.26;96722.02;115482;1198;25265;-85
2021/09/25 04:30:46;;;;;;;;;;;;;;;12.55;78.54;96727.84;115478;1198;30819;-86
2021/09/25 04:33:17;;;;;;;3.30;2.10;;;;;;;12.55;78.64;96722.42;115485;1198;24267;-86
2021/09/25 04:35:48;;;;;;;2.80;2.20;;;;;;;12.57;78.85;96728.66;115482;1198;24852;-87
2021/09/25 04:38:17;;;;;;;;;;;;;;;12.58;79.14;96733.02;115466;1198;24875;-85
2021/09/25 04:40:47;;;;;;;3.90;2.00;;;;;;;12.59;79.26;96733.00;115592;1198;25588;-86
2021/09/25 04:43:16;;;;;;;;;;;;;;;12.61;79.47;96739.46;115465;1198;24197;-86
2021/09/25 04:45:47;;;;;;;3.90;2.20;;;;;;;12.60;79.64;96743.99;115490;1198;23623;-86
2021/09/25 04:48:16;;;;;;;;;;;;;;;12.59;79.65;96741.77;115495;1194;25411;-86
2021/09/25 04:50:47;;;;;;;4.10;2.10;;;;;;;12.58;79.66;96739.13;115508;1198;26535;-86
2021/09/25 04:53:16;;;;;;;;;;;;;;;12.62;79.53;96743.59;115539;1198;25210;-86
2021/09/25 04:55:47;;;;;;;4.60;2.60;;;;;;;12.66;79.28;96740.39;115476;1198;25512;-86
2021/09/25 04:58:17;;;;;;;4.20;2.40;;;;;;;12.68;79.15;96738.63;115423;1191;31178;-87
2021/09/25 05:00:46;;;;;;;;;;;;;;;12.70;78.97;96741.36;115568;1197;25210;-86
2021/09/25 05:03:17;;;;;;;3.70;2.10;;;;;;;12.71;78.83;96743.52;115451;1198;27799;-86
2021/09/25 05:05:46;;;;;;;;;;;;;;;12.71;78.74;96746.56;115434;1192;30568;-86
2021/09/25 05:08:17;;;;;;;6.70;3.10;;;;;;;12.71;78.74;96749.06;115384;1199;26051;-86
2021/09/25 05:10:48;;;;;;;5.30;3.30;;;;;;;12.72;78.73;96750.27;115491;1197;25001;-87
2021/09/25 05:13:19;;;;;;;6.80;3.30;;;;;;;12.72;78.64;96753.09;115374;1199;27606;-85
2021/09/25 05:15:49;;;;;;;6.30;3.40;;;;;;;12.72;78.75;96754.93;115456;1198;27150;-86
2021/09/25 05:18:20;;;;;;;4.80;3.00;;;;;;;12.74;78.79;96763.48;115461;1198;25303;-86
2021/09/25 05:20:49;;;;;;;;;;;;;;;12.76;78.71;96759.87;115474;1197;27164;-86
2021/09/25 05:23:21;;;;;;;5.40;2.80;;;;;;;12.78;78.82;96755.59;115428;1198;27929;-86
2021/09/25 05:25:52;;;;;;;3.60;2.70;;;;;;;12.79;78.83;96760.14;115480;1198;26321;-87
2021/09/25 05:28:23;;;;;;;5.30;2.40;;;;;;;12.81;78.72;96758.48;115443;1198;24597;-86
2021/09/25 05:30:51;;;;;;;;;;;;;;;12.84;78.84;96763.08;115426;1199;26153;-87
2021/09/25 05:33:22;;;;;;;4.70;2.70;;;;;;;12.85;78.92;96761.19;115505;1198;23889;-87
2021/09/25 05:35:53;;;;;;;4.20;2.80;;;;;;;12.87;78.88;96765.52;115635;1198;24647;-86
2021/09/25 05:38:24;;;;;;;6.00;3.10;;;;;;;12.88;78.93;96765.92;115583;1198;25725;-86
2021/09/25 05:40:55;;;;;;;4.70;2.10;;;;;;;12.90;78.93;96764.35;115617;1198;26583;-87
2021/09/25 05:43:24;;;;;;;;;;;;;;;12.91;78.92;96764.81;115603;1198;24619;-86
2021/09/25 05:45:55;;;;;;;3.30;2.40;;;;;;;12.92;78.88;96763.75;115573;1191;28753;-87
2021/09/25 05:48:26;;;;;;;4.60;2.60;;;;;;;12.91;78.82;96767.32;115545;1198;24964;-86
2021/09/25 05:50:57;;;;;;;3.90;2.30;;;;;;;12.92;78.87;96766.29;115536;1197;25744;-86
2021/09/25 05:53:27;;;;;;;5.90;2.60;;;;;;;12.92;78.78;96765.23;115447;1198;30657;-86
2021/09/25 05:55:58;;;;;;;5.60;2.60;;;;;;;12.92;78.75;96762.35;115462;1198;27319;-87
2021/09/25 05:58:29;;;;;;;5.00;2.70;;;;;;;12.93;78.70;96761.05;115554;1183;25502;-86
2021/09/25 06:01:00;;;;;;;4.20;2.50;;;;;;;12.95;78.72;96764.55;115396;1194;24674;-87
2021/09/25 06:03:29;;;;;;;;;;;;;;;12.97;78.63;96765.27;115495;1198;25187;-86
2021/09/25 06:06:00;;;;;;;4.60;2.30;;;;;;;12.99;78.64;96770.09;115480;1197;27086;-87
2021/09/25 06:08:31;;;;;;;5.00;2.60;;;;;;;13.00;78.71;96768.77;115490;1198;30698;-86
2021/09/25 06:11:01;;;;;;;4.60;2.80;;;;;;;13.02;78.75;96774.04;115506;1198;25328;-86
2021/09/25 06:13:32;;;;;;;5.60;2.90;;;;;;;13.01;78.77;96769.09;115421;1198;32184;-86
2021/09/25 06:16:03;;;;;;;5.20;2.70;;;;;;;13.03;78.75;96772.68;115482;1197;26565;-86
2021/09/25 06:18:34;;;;;;;3.70;2.70;;;;;;;13.05;78.82;96771.86;115388;1198;24709;-86
2021/09/25 06:21:05;;;;;;;4.00;2.50;;;;;;;13.06;78.70;96773.63;115365;1198;27298;-86
2021/09/25 06:23:36;;;;;;;2.90;2.20;;;;;;;13.08;78.82;96776.70;115464;1198;25888;-86
2021/09/25 06:26:08;;;;;;;4.10;2.60;;;;;;;13.11;78.77;96775.13;115474;1191;25930;-87
2021/09/25 06:28:39;;;;;;;3.00;2.30;;;;;;;13.14;78.88;96778.95;115516;1198;26123;-87
2021/09/25 06:31:10;;;;;;;4.90;2.70;;;;;;;13.16;78.76;96782.02;115481;1198;24723;-87
2021/09/25 06:33:42;;;;;;;5.60;2.50;;;;;;;13.18;78.77;96779.60;115445;1199;26500;-86
2021/09/25 06:36:13;;;;;;;4.00;2.50;;;;;;;13.20;78.80;96781.01;115567;1198;25777;-87
2021/09/25 06:38:43;;;;;;;3.20;2.40;;;;;;;13.22;78.81;96780.45;115458;1198;25882;-85
2021/09/25 06:41:14;;;;;;;3.30;2.70;;;;;;;13.25;78.75;96780.69;115404;1198;25226;-87
2021/09/25 06:43:45;;;;;;;3.30;2.90;;;;;;;13.28;78.78;96780.79;115494;1198;26893;-87
2021/09/25 06:46:16;;;;;;;4.50;2.80;;;;;;;13.32;78.75;96784.34;115438;1198;28252;-87
2021/09/25 06:48:49;;;;;;;5.40;2.90;;;;;;;13.35;78.66;96781.31;115395;1198;29188;-86
2021/09/25 06:51:20;;;;;;;4.40;2.60;;;;;;;13.37;78.54;96782.08;115415;1198;27697;-86
2021/09/25 06:53:51;;;;;;;3.50;2.70;;;;;;;13.39;78.59;96782.27;115424;1198;51194;-86
2021/09/25 06:56:23;;;;;;;3.90;2.70;;;;;;;13.41;78.46;96783.15;115461;1198;28106;-86
2021/09/25 06:58:54;;;;;;;3.60;3.10;;;;;;;13.43;78.40;96786.84;115470;1198;26333;-88
2021/09/25 07:01:25;;;;;;;4.90;3.10;;;;;;;13.44;78.43;96788.58;115356;1194;28665;-87
2021/09/25 07:03:56;;;;;;;4.50;2.80;;;;;;;13.45;78.40;96797.83;115443;1198;25173;-85
2021/09/25 07:06:27;;;;;;;5.50;3.20;;;;;;;13.47;78.33;96801.67;115433;1198;26105;-84
2021/09/25 07:08:57;;;;;;;4.30;3.00;;;;;;;13.48;78.45;96804.10;115392;1198;25193;-87
2021/09/25 07:11:26;;;;;;;;;;;;;;;13.51;78.45;96802.84;115495;1198;30228;-86
2021/09/25 07:13:57;;;;;;;5.10;3.00;;;;;;;13.53;78.52;96805.42;115433;1198;27430;-87
2021/09/25 07:16:28;;;;;;;4.00;2.70;;;;;;;13.55;78.63;96805.13;115407;1198;26907;-87
2021/09/25 07:18:59;;;;;;;4.30;2.60;;;;;;;13.57;78.63;96809.25;115436;1198;26682;-87
2021/09/25 07:21:28;;;;;;;;;;;;;;;13.60;78.59;96810.58;115484;1192;27004;-87
2021/09/25 07:23:58;;;;;;;4.70;3.10;;;;;;;13.64;78.50;96806.72;115445;1198;24764;-87
2021/09/25 07:26:28;;;;;;;;;;;;;;;13.71;78.46;96810.67;115468;1198;25387;-87
2021/09/25 07:28:58;;;;;;;5.00;3.00;;;;;;;13.76;78.62;96814.83;115439;1198;25976;-86
2021/09/25 07:31:29;;;;;;;4.90;3.20;;;;;;;13.82;78.63;96819.85;115459;1198;27413;-86
2021/09/25 07:34:00;;;;;;;5.10;3.00;;;;;;;13.89;78.62;96821.84;115434;1192;28800;-87
2021/09/25 07:36:31;;;;;;;6.10;3.10;;;;;;;13.97;78.65;96821.02;115372;1198;27294;-86
2021/09/25 07:39:02;;;;;;;3.70;2.50;;;;;;;14.05;78.60;96820.29;115398;1198;25865;-87
2021/09/25 07:41:33;;;;;;;5.00;2.80;;;;;;;14.10;78.48;96825.52;115418;1198;26330;-87
2021/09/25 07:44:04;;;;;;;3.70;2.50;;;;;;;14.17;78.53;96830.30;115394;1198;29075;-88
2021/09/25 07:46:35;;;;;;;4.40;2.70;;;;;;;14.24;78.57;96834.66;115435;1198;32388;-86
2021/09/25 07:49:06;;;;;;;5.10;2.90;;;;;;;14.31;78.60;96838.67;115482;1198;26317;-87
2021/09/25 07:51:37;;;;;;;4.50;3.00;;;;;;;14.36;78.56;96836.83;115492;1198;28111;-86
2021/09/25 07:54:08;;;;;;;4.70;2.60;;;;;;;14.40;78.31;96839.86;115588;1198;25378;-87
2021/09/25 07:56:39;;;;;;;3.20;2.40;;;;;;;14.42;78.13;96836.17;115491;1198;25244;-87
2021/09/25 07:59:11;;;;;;;3.60;2.90;;;;;;;14.45;78.14;96839.39;115500;1198;23564;-87
2021/09/25 08:01:42;;;;;;;4.70;3.00;;;;;;;14.47;78.09;96840.83;115506;1198;27262;-87
2021/09/25 08:04:13;;;;;;;5.80;3.10;;;;;;;14.49;78.03;96841.92;115431;1199;24376;-87
2021/09/25 08:06:44;;;;;;;4.10;2.70;;;;;;;14.51;77.98;96843.88;115421;1198;34282;-85
2021/09/25 08:09:14;;;;;;;5.00;2.80;;;;;;;14.53;77.91;96845.84;115404;1198;27748;-86
2021/09/25 08:11:46;;;;;;;3.90;2.60;;;;;;;14.58;77.92;96845.00;115466;1198;26600;-86
2021/09/25 08:14:17;;;;;;;4.80;3.00;;;;;;;14.63;77.86;96847.03;115410;1191;25631;-87
2021/09/25 08:16:48;;;;;;;3.50;2.30;;;;;;;14.68;77.86;96848.45;115464;1198;25668;-86
2021/09/25 08:19:19;;;;;;;4.30;3.00;;;;;;;14.69;77.68;96852.57;115413;1198;26061;-87
2021/09/25 08:21:50;;;;;;;6.60;3.20;;;;;;;14.70;77.51;96857.36;115495;1198;24361;-86
2021/09/25 08:24:21;;;;;;;3.80;3.10;;;;;;;14.70;77.49;96858.20;115374;1198;38318;-86
2021/09/25 08:26:52;;;;;;;6.40;3.30;;;;;;;14.72;77.51;96857.46;115446;1198;24918;-86
2021/09/25 08:29:23;;;;;;;5.70;3.10;;;;;;;14.74;77.46;96863.51;115438;1198;26536;-86
2021/09/25 08:31:54;;;;;;;6.70;3.60;;;;;;;14.76;77.27;96864.74;115485;1185;24862;-87
2021/09/25 08:34:25;;;;;;;7.10;3.80;;;;;;;14.78;77.35;96866.16;115595;1198;26552;-86
2021/09/25 08:36:56;;;;;;;5.70;3.60;;;;;;;14.83;77.49;96860.94;115608;1198;26424;-86
2021/09/25 08:39:27;;;;;;;6.00;3.40;;;;;;;14.91;77.53;96859.81;115548;1198;26665;-87
2021/09/25 08:41:59;;;;;;;4.60;3.30;;;;;;;14.96;77.42;96865.21;115627;1198;24464;-88
2021/09/25 08:44:32;;;;;;;4.40;3.10;;;;;;;15.01;77.42;96863.90;115561;1198;27326;-87
2021/09/25 08:47:05;;;;;;;5.30;3.50;;;;;;;15.08;77.53;96866.48;115423;1198;25037;-87
2021/09/25 08:49:37;;;;;;;4.50;2.90;;;;;;;15.19;77.60;96866.45;115465;1192;25296;-87
2021/09/25 08:52:08;;;;;;;5.50;3.10;;;;;;;15.32;77.57;96868.45;115392;1199;24209;-86
2021/09/25 08:54:39;;;;;;;5.20;3.60;;;;;;;15.46;77.27;96868.95;115482;1198;25071;-87
2021/09/25 08:57:10;;;;;;;6.70;3.40;;;;;;;15.59;77.02;96870.25;115491;1192;27578;-86
2021/09/25 08:59:42;;;;;;;5.00;3.20;;;;;;;15.69;76.69;96868.41;115486;1198;26320;-87
2021/09/25 09:02:15;;;;;;;7.10;3.20;;;;;;;15.82;76.74;96866.73;115496;1198;26880;-87
2021/09/25 09:04:50;;;;;;;4.50;3.10;;;;;;;15.98;76.52;96863.44;115411;1192;28658;-85
2021/09/25 09:07:23;;;;;;;7.00;3.90;;;;;;;16.13;76.08;96862.31;115510;1191;26095;-87
2021/09/25 09:09:54;;;;;;;6.90;3.50;;;;;;;16.22;75.99;96862.27;115468;1191;26159;-87
2021/09/25 09:12:26;;;;;;;7.20;4.20;;;;;;;16.33;75.70;96866.06;115458;1198;28333;-87
2021/09/25 09:14:59;;;;;;;5.70;3.80;;;;;;;16.38;75.41;96864.95;115443;1191;25685;-86
2021/09/25 09:17:33;;;;;;;5.50;4.00;;;;;;;16.44;75.22;96865.81;115342;1199;29308;-87
2021/09/25 09:20:11;;;;;;;6.10;4.20;;;;;;;16.50;75.25;96868.65;115366;1198;24749;-86
2021/09/25 09:22:43;;;;;;;5.40;3.90;;;;;;;16.56;74.95;96872.16;115500;1199;25736;-86
2021/09/25 09:25:15;;;;;;;5.30;3.70;;;;;;;16.65;74.81;96869.97;115459;1198;25634;-86
2021/09/25 09:27:47;;;;;;;5.80;3.90;;;;;;;16.74;74.94;96866.89;115343;1198;25930;-87
2021/09/25 09:30:19;;;;;;;5.90;4.00;;;;;;;16.82;74.59;96866.45;115451;1198;26376;-87
2021/09/25 09:32:50;;;;;;;6.40;4.10;;;;;;;16.89;74.43;96870.59;115475;1198;24852;-87
2021/09/25 09:35:21;;;;;;;4.00;3.30;;;;;;;16.96;74.39;96870.98;115445;1198;27483;-87
2021/09/25 09:37:58;;;;;;;5.90;3.70;;;;;;;17.06;74.57;96868.69;115564;1190;30164;-87
2021/09/25 09:40:29;;;;;;;5.60;4.10;;;;;;;17.19;74.19;96871.42;115499;1198;25497;-85
2021/09/25 09:43:00;;;;;;;5.50;4.10;;;;;;;17.32;74.32;96868.77;115474;1198;24810;-87
2021/09/25 09:45:36;;;;;;;5.50;3.60;;;;;;;17.45;74.42;96867.70;115467;1198;25032;-86
2021/09/25 09:48:10;;;;;;;5.00;3.70;;;;;;;17.55;73.54;96868.95;115475;1198;25854;-87
2021/09/25 09:50:42;;;;;;;5.40;4.30;;;;;;;17.57;73.17;96868.11;115563;1198;26996;-87
2021/09/25 09:53:15;;;;;;;5.60;4.20;;;;;;;17.66;72.81;96862.46;115460;1198;25351;-86
2021/09/25 09:55:47;;;;;;;7.70;4.40;;;;;;;17.69;71.27;96859.58;115420;1198;28198;-86
2021/09/25 09:58:18;;;;;;;6.90;4.00;;;;;;;17.68;70.51;96860.20;115418;1199;24920;-87
2021/09/25 10:00:50;;;;;;;6.80;4.30;;;;;;;17.70;70.31;96854.88;115436;1198;24554;-87
2021/09/25 10:03:22;;;;;;;4.80;3.80;;;;;;;17.70;70.46;96860.90;115389;1198;38376;-87
2021/09/25 10:05:53;;;;;;;6.40;4.20;;;;;;;17.74;70.40;96860.94;115538;1198;23901;-87
2021/09/25 10:08:24;;;;;;;5.10;3.90;;;;;;;17.75;70.50;96857.01;115409;1198;25868;-87
2021/09/25 10:10:55;;;;;;;7.20;4.20;;;;;;;17.76;70.58;96854.60;115450;1198;25625;-88
2021/09/25 10:13:27;;;;;;;5.90;4.00;;;;;;;17.77;70.87;96853.05;115445;1198;24952;-88
2021/09/25 10:15:58;;;;;;;7.10;4.50;;;;;;;17.77;70.49;96851.77;115384;1198;27116;-88
2021/09/25 10:18:29;;;;;;;5.50;3.80;;;;;;;17.78;70.59;96856.30;115451;1198;26407;-87
2021/09/25 10:21:00;;;;;;;5.30;4.10;;;;;;;17.78;70.47;96855.59;115480;1198;34707;-87
2021/09/25 10:23:32;;;;;;;6.30;4.50;;;;;;;17.80;70.86;96855.84;115416;1198;26345;-87
2021/09/25 10:26:04;;;;;;;6.00;4.50;;;;;;;17.84;70.14;96854.35;115482;1191;25443;-87
2021/09/25 10:28:37;;;;;;;5.50;4.30;;;;;;;17.79;69.75;96856.20;115364;1199;26356;-87
2021/09/25 10:31:19;;;;;;;5.60;4.20;;;;;;;17.76;69.16;96858.07;115379;1199;28004;-87
2021/09/25 10:34:11;;;;;;;5.50;4.70;;;;;;;17.73;69.44;96857.90;115384;1191;28853;-86
2021/09/25 10:36:47;;;;;;;6.20;4.70;;;;;;;17.73;69.58;96860.80;115532;1198;26874;-87
2021/09/25 10:39:36;;;;;;;6.40;4.80;;;;;;;17.74;69.75;96864.24;115541;1198;36984;-84
2021/09/25 10:42:15;;;;;;;6.40;4.20;;;;;;;17.77;69.22;96859.70;115622;1198;25458;-86
2021/09/25 10:44:49;;;;;;;6.10;4.50;;;;;;;17.80;68.59;96860.04;115606;1191;27867;-86
2021/09/25 10:47:23;;;;;;;5.50;4.20;;;;;;;17.85;69.07;96858.55;115597;1198;26806;-87
2021/09/25 10:49:58;;;;;;;6.30;4.50;;;;;;;17.93;69.14;96860.69;115580;1198;26906;-86
2021/09/25 10:52:49;;;;;;;6.80;4.90;;;;;;;18.01;69.50;96857.79;115480;1198;25740;-86
2021/09/25 10:55:32;;;;;;;7.20;5.30;;;;;;;18.06;68.99;96860.40;115495;1192;25115;-87
2021/09/25 10:58:18;;;;;;;8.50;4.90;;;;;;;18.08;68.93;96864.61;115423;1198;32162;-86
2021/09/25 11:01:09;;;;;;;6.40;4.60;;;;;;;18.12;68.41;96858.48;115445;1198;24933;-86
2021/09/25 11:04:08;;;;;;;8.00;5.10;;;;;;;18.13;68.79;96859.27;115487;1198;24714;-87
2021/09/25 11:06:52;;;;;;;7.00;4.70;;;;;;;18.22;68.40;96855.42;115389;1199;27776;-87
2021/09/25 11:09:30;;;;;;;7.40;4.70;;;;;;;18.26;68.53;96854.92;115433;1198;27659;-86
2021/09/25 11:12:06;;;;;;;6.40;4.60;;;;;;;18.33;67.61;96844.56;115454;1198;29217;-87
2021/09/25 11:14:42;;;;;;;7.10;5.00;;;;;;;18.41;67.54;96847.31;115462;1191;27437;-86
2021/09/25 11:17:27;;;;;;;6.30;5.20;;;;;;;18.50;68.15;96849.58;115461;1192;34823;-86
2021/09/25 11:20:00;;;;;;;8.90;5.40;;;;;;;18.59;67.49;96847.43;115485;1198;27091;-86
2021/09/25 11:22:34;;;;;;;5.90;5.30;;;;;;;18.66;67.31;96845.05;115528;1198;31958;-87
2021/09/25 11:25:08;;;;;;;7.10;4.70;;;;;;;18.75;67.43;96842.86;115565;1193;26389;-87
2021/09/25 11:27:42;;;;;;;5.70;4.70;;;;;;;18.80;67.18;96842.83;115549;1197;28108;-84
2021/09/25 11:30:15;;;;;;;6.70;4.60;;;;;;;18.80;66.56;96846.34;115503;1198;27147;-85
2021/09/25 11:32:50;;;;;;;7.60;5.10;;;;;;;18.81;67.41;96847.31;115393;1198;27853;-86
2021/09/25 11:35:23;;;;;;;6.30;4.30;;;;;;;18.86;67.56;96848.11;115404;1198;28062;-86
2021/09/25 11:37:58;;;;;;;7.20;4.90;;;;;;;18.88;67.21;96849.11;115479;1198;27061;-86
2021/09/25 11:40:32;;;;;;;6.60;4.50;;;;;;;18.86;66.92;96849.19;115449;1198;33797;-87
2021/09/25 11:43:05;;;;;;;7.50;5.10;;;;;;;18.81;66.55;96847.60;115470;1198;29332;-86
2021/09/25 11:45:38;;;;;;;7.90;4.90;;;;;;;18.75;66.91;96846.91;115370;1197;29773;-87
2021/09/25 11:48:10;;;;;;;6.00;4.90;;;;;;;18.72;66.88;96846.52;115485;1198;28333;-86
2021/09/25 11:50:43;;;;;;;6.80;4.70;;;;;;;18.70;66.75;96844.17;115629;1192;26806;-86
2021/09/25 11:53:17;;;;;;;6.40;4.70;;;;;;;18.65;66.61;96849.74;115531;1198;26149;-84
2021/09/25 11:55:49;;;;;;;6.00;4.70;;;;;;;18.66;66.91;96851.02;115488;1193;36722;-86